sensor_id;sensor_type;location;lat;lon;timestamp;pressure;altitude;pressure_sealevel;temperature;humidity
3544;BME280;1786;52.870;9.578;2022-07-24T00:01:25;101091.22;;;23.82;54.47
3544;BME280;1786;52.870;9.578;2022-07-24T00:03:52;101096.09;;;23.95;53.90
3544;BME280;1786;52.870;9.578;2022-07-24T00:06:21;101092.38;;;23.96;53.71
3544;BME280;1786;52.870;9.578;2022-07-24T00:08:47;101095.41;;;23.93;54.00
3544;BME280;1786;52.870;9.578;2022-07-24T00:11:14;101090.84;;;23.93;54.04
3544;BME280;1786;52.870;9.578;2022-07-24T00:13:41;101084.81;;;23.75;53.97
3544;BME280;1786;52.870;9.578;2022-07-24T00:16:08;101084.31;;;23.80;53.99
3544;BME280;1786;52.870;9.578;2022-07-24T00:18:35;101084.63;;;23.68;54.34
3544;BME280;1786;52.870;9.578;2022-07-24T00:21:02;101091.72;;;23.78;54.18
3544;BME280;1786;52.870;9.578;2022-07-24T00:23:29;101096.09;;;23.62;54.04
3544;BME280;1786;52.870;9.578;2022-07-24T00:25:56;101090.06;;;23.52;54.18
3544;BME280;1786;52.870;9.578;2022-07-24T00:28:23;101090.88;;;23.52;54.28
3544;BME280;1786;52.870;9.578;2022-07-24T00:30:50;101094.25;;;23.54;54.03
3544;BME280;1786;52.870;9.578;2022-07-24T00:33:16;101091.38;;;23.56;54.41
3544;BME280;1786;52.870;9.578;2022-07-24T00:35:43;101096.47;;;23.59;54.22
3544;BME280;1786;52.870;9.578;2022-07-24T00:38:10;101090.72;;;23.54;54.19
3544;BME280;1786;52.870;9.578;2022-07-24T00:40:37;101085.16;;;23.39;53.96
3544;BME280;1786;52.870;9.578;2022-07-24T00:43:04;101076.22;;;23.30;54.48
3544;BME280;1786;52.870;9.578;2022-07-24T00:45:30;101085.50;;;23.52;54.19
3544;BME280;1786;52.870;9.578;2022-07-24T00:47:57;101074.03;;;23.59;54.13
3544;BME280;1786;52.870;9.578;2022-07-24T00:50:24;101076.88;;;23.57;54.25
3544;BME280;1786;52.870;9.578;2022-07-24T00:52:52;101072.84;;;23.45;54.27
3544;BME280;1786;52.870;9.578;2022-07-24T00:55:20;101081.75;;;23.53;54.04
3544;BME280;1786;52.870;9.578;2022-07-24T00:57:47;101082.94;;;23.51;54.11
3544;BME280;1786;52.870;9.578;2022-07-24T01:00:17;101076.22;;;23.47;54.31
3544;BME280;1786;52.870;9.578;2022-07-24T01:02:45;101077.75;;;23.41;54.05
3544;BME280;1786;52.870;9.578;2022-07-24T01:05:11;101073.03;;;23.35;54.13
3544;BME280;1786;52.870;9.578;2022-07-24T01:07:38;101080.25;;;23.43;54.30
3544;BME280;1786;52.870;9.578;2022-07-24T01:10:05;101071.50;;;23.41;54.09
3544;BME280;1786;52.870;9.578;2022-07-24T01:12:33;101064.09;;;23.26;54.70
3544;BME280;1786;52.870;9.578;2022-07-24T01:15:00;101069.31;;;23.11;55.14
3544;BME280;1786;52.870;9.578;2022-07-24T01:17:31;101075.88;;;23.25;54.54
3544;BME280;1786;52.870;9.578;2022-07-24T01:19:59;101072.34;;;23.25;54.26
3544;BME280;1786;52.870;9.578;2022-07-24T01:22:26;101066.47;;;23.21;54.18
3544;BME280;1786;52.870;9.578;2022-07-24T01:24:55;101064.09;;;23.26;54.24
3544;BME280;1786;52.870;9.578;2022-07-24T01:27:22;101068.56;;;22.85;55.69
3544;BME280;1786;52.870;9.578;2022-07-24T01:29:50;101072.44;;;22.82;56.25
3544;BME280;1786;52.870;9.578;2022-07-24T01:32:16;101076.00;;;22.91;55.63
3544;BME280;1786;52.870;9.578;2022-07-24T01:34:44;101076.50;;;22.86;54.68
3544;BME280;1786;52.870;9.578;2022-07-24T01:37:11;101068.06;;;22.89;54.92
3544;BME280;1786;52.870;9.578;2022-07-24T01:39:38;101068.06;;;22.89;54.48
3544;BME280;1786;52.870;9.578;2022-07-24T01:42:05;101067.13;;;22.99;54.25
3544;BME280;1786;52.870;9.578;2022-07-24T01:44:32;101071.09;;;22.78;54.11
3544;BME280;1786;52.870;9.578;2022-07-24T01:46:58;101063.38;;;22.92;53.67
3544;BME280;1786;52.870;9.578;2022-07-24T01:49:25;101073.25;;;22.83;53.85
3544;BME280;1786;52.870;9.578;2022-07-24T01:51:51;101063.50;;;22.90;54.34
3544;BME280;1786;52.870;9.578;2022-07-24T01:54:18;101063.84;;;22.95;54.31
3544;BME280;1786;52.870;9.578;2022-07-24T01:56:44;101069.75;;;22.90;54.12
3544;BME280;1786;52.870;9.578;2022-07-24T01:59:12;101078.19;;;22.96;53.94
3544;BME280;1786;52.870;9.578;2022-07-24T02:01:39;101074.00;;;22.93;53.91
3544;BME280;1786;52.870;9.578;2022-07-24T02:04:06;101077.66;;;22.92;53.81
3544;BME280;1786;52.870;9.578;2022-07-24T02:06:33;101084.13;;;22.99;53.33
3544;BME280;1786;52.870;9.578;2022-07-24T02:08:59;101073.34;;;22.99;53.44
3544;BME280;1786;52.870;9.578;2022-07-24T02:11:27;101066.56;;;22.95;53.42
3544;BME280;1786;52.870;9.578;2022-07-24T02:13:53;101079.03;;;22.96;53.45
3544;BME280;1786;52.870;9.578;2022-07-24T02:16:22;101070.59;;;22.91;53.59
3544;BME280;1786;52.870;9.578;2022-07-24T02:18:49;101068.06;;;22.81;53.99
3544;BME280;1786;52.870;9.578;2022-07-24T02:21:16;101066.69;;;22.85;53.77
3544;BME280;1786;52.870;9.578;2022-07-24T02:23:43;101072.28;;;22.84;54.07
3544;BME280;1786;52.870;9.578;2022-07-24T02:26:10;101066.41;;;22.88;53.60
3544;BME280;1786;52.870;9.578;2022-07-24T02:28:37;101066.00;;;22.75;54.06
3544;BME280;1786;52.870;9.578;2022-07-24T02:31:03;101064.00;;;22.77;53.84
3544;BME280;1786;52.870;9.578;2022-07-24T02:33:30;101059.44;;;22.78;53.67
3544;BME280;1786;52.870;9.578;2022-07-24T02:35:57;101059.63;;;22.84;53.61
3544;BME280;1786;52.870;9.578;2022-07-24T02:38:24;101062.47;;;22.75;53.68
3544;BME280;1786;52.870;9.578;2022-07-24T02:40:51;101062.66;;;22.73;54.06
3544;BME280;1786;52.870;9.578;2022-07-24T02:43:17;101063.84;;;22.71;54.47
3544;BME280;1786;52.870;9.578;2022-07-24T02:45:44;101063.66;;;22.72;54.39
3544;BME280;1786;52.870;9.578;2022-07-24T02:48:16;101058.25;;;22.64;54.71
3544;BME280;1786;52.870;9.578;2022-07-24T02:50:43;101062.13;;;22.61;55.25
3544;BME280;1786;52.870;9.578;2022-07-24T02:53:09;101062.59;;;22.57;55.37
3544;BME280;1786;52.870;9.578;2022-07-24T02:55:36;101074.56;;;22.54;55.69
3544;BME280;1786;52.870;9.578;2022-07-24T02:58:04;101072.69;;;22.46;55.31
3544;BME280;1786;52.870;9.578;2022-07-24T03:00:30;101075.16;;;22.40;55.26
3544;BME280;1786;52.870;9.578;2022-07-24T03:02:58;101080.19;;;22.35;54.98
3544;BME280;1786;52.870;9.578;2022-07-24T03:05:25;101087.16;;;22.45;54.24
3544;BME280;1786;52.870;9.578;2022-07-24T03:07:52;101092.91;;;22.51;53.71
3544;BME280;1786;52.870;9.578;2022-07-24T03:10:19;101084.75;;;22.42;54.07
3544;BME280;1786;52.870;9.578;2022-07-24T03:12:45;101082.72;;;22.36;54.46
3544;BME280;1786;52.870;9.578;2022-07-24T03:15:13;101080.41;;;22.41;54.72
3544;BME280;1786;52.870;9.578;2022-07-24T03:17:54;101083.59;;;22.45;54.74
3544;BME280;1786;52.870;9.578;2022-07-24T03:20:26;101076.75;;;22.51;54.05
3544;BME280;1786;52.870;9.578;2022-07-24T03:22:53;101083.44;;;22.46;54.21
3544;BME280;1786;52.870;9.578;2022-07-24T03:25:20;101073.63;;;22.37;54.64
3544;BME280;1786;52.870;9.578;2022-07-24T03:27:48;101072.31;;;22.41;54.31
3544;BME280;1786;52.870;9.578;2022-07-24T03:30:16;101079.22;;;22.44;54.09
3544;BME280;1786;52.870;9.578;2022-07-24T03:32:43;101078.06;;;22.46;54.12
3544;BME280;1786;52.870;9.578;2022-07-24T03:35:10;101080.41;;;22.50;54.25
3544;BME280;1786;52.870;9.578;2022-07-24T03:37:38;101078.88;;;22.39;54.23
3544;BME280;1786;52.870;9.578;2022-07-24T03:40:05;101084.63;;;22.44;54.26
3544;BME280;1786;52.870;9.578;2022-07-24T03:42:32;101076.06;;;22.49;54.11
3544;BME280;1786;52.870;9.578;2022-07-24T03:44:59;101074.81;;;22.35;54.27
3544;BME280;1786;52.870;9.578;2022-07-24T03:47:25;101073.63;;;22.03;55.06
3544;BME280;1786;52.870;9.578;2022-07-24T03:49:52;101076.53;;;21.83;55.76
3544;BME280;1786;52.870;9.578;2022-07-24T03:52:20;101072.28;;;21.73;56.46
3544;BME280;1786;52.870;9.578;2022-07-24T03:54:50;101071.38;;;21.90;56.38
3544;BME280;1786;52.870;9.578;2022-07-24T03:57:17;101082.78;;;22.18;55.65
3544;BME280;1786;52.870;9.578;2022-07-24T03:59:44;101081.06;;;22.09;56.24
3544;BME280;1786;52.870;9.578;2022-07-24T04:02:11;101083.91;;;22.34;55.64
3544;BME280;1786;52.870;9.578;2022-07-24T04:04:38;101082.78;;;22.53;55.27
3544;BME280;1786;52.870;9.578;2022-07-24T04:07:05;101079.59;;;22.57;55.17
3544;BME280;1786;52.870;9.578;2022-07-24T04:09:31;101084.84;;;22.67;54.81
3544;BME280;1786;52.870;9.578;2022-07-24T04:11:59;101076.81;;;22.83;54.79
3544;BME280;1786;52.870;9.578;2022-07-24T04:14:26;101079.84;;;22.80;55.14
3544;BME280;1786;52.870;9.578;2022-07-24T04:16:53;101083.88;;;22.76;55.80
3544;BME280;1786;52.870;9.578;2022-07-24T04:19:19;101078.84;;;22.81;56.10
3544;BME280;1786;52.870;9.578;2022-07-24T04:21:46;101077.81;;;22.82;56.35
3544;BME280;1786;52.870;9.578;2022-07-24T04:24:13;101083.06;;;22.92;56.11
3544;BME280;1786;52.870;9.578;2022-07-24T04:26:39;101080.41;;;23.00;56.02
3544;BME280;1786;52.870;9.578;2022-07-24T04:29:06;101086.66;;;23.01;56.28
3544;BME280;1786;52.870;9.578;2022-07-24T04:31:34;101077.22;;;23.05;56.16
3544;BME280;1786;52.870;9.578;2022-07-24T04:34:01;101070.84;;;23.14;56.09
3544;BME280;1786;52.870;9.578;2022-07-24T04:36:28;101064.75;;;23.20;56.04
3544;BME280;1786;52.870;9.578;2022-07-24T04:38:54;101080.44;;;23.33;55.56
3544;BME280;1786;52.870;9.578;2022-07-24T04:41:21;101070.69;;;23.24;56.25
3544;BME280;1786;52.870;9.578;2022-07-24T04:43:48;101075.91;;;23.42;55.83
3544;BME280;1786;52.870;9.578;2022-07-24T04:46:16;101068.44;;;23.68;55.51
3544;BME280;1786;52.870;9.578;2022-07-24T04:48:44;101075.16;;;23.89;55.24
3544;BME280;1786;52.870;9.578;2022-07-24T04:51:10;101068.06;;;24.04;54.43
3544;BME280;1786;52.870;9.578;2022-07-24T04:53:37;101073.16;;;23.99;54.67
3544;BME280;1786;52.870;9.578;2022-07-24T04:56:04;101078.38;;;23.92;54.89
3544;BME280;1786;52.870;9.578;2022-07-24T04:58:31;101070.03;;;24.18;54.40
3544;BME280;1786;52.870;9.578;2022-07-24T05:00:58;101077.03;;;24.36;54.66
3544;BME280;1786;52.870;9.578;2022-07-24T05:03:25;101072.72;;;24.27;54.56
3544;BME280;1786;52.870;9.578;2022-07-24T05:05:52;101064.38;;;24.36;54.78
3544;BME280;1786;52.870;9.578;2022-07-24T05:08:18;101073.97;;;24.55;54.13
3544;BME280;1786;52.870;9.578;2022-07-24T05:10:45;101070.19;;;24.65;54.61
3544;BME280;1786;52.870;9.578;2022-07-24T05:13:12;101070.50;;;24.70;54.84
3544;BME280;1786;52.870;9.578;2022-07-24T05:15:39;101067.53;;;24.88;54.41
3544;BME280;1786;52.870;9.578;2022-07-24T05:18:06;101065.56;;;24.73;54.81
3544;BME280;1786;52.870;9.578;2022-07-24T05:20:32;101064.44;;;24.68;55.15
3544;BME280;1786;52.870;9.578;2022-07-24T05:22:59;101068.75;;;24.77;55.18
3544;BME280;1786;52.870;9.578;2022-07-24T05:25:26;101064.91;;;24.94;55.17
3544;BME280;1786;52.870;9.578;2022-07-24T05:27:52;101070.50;;;24.70;55.19
3544;BME280;1786;52.870;9.578;2022-07-24T05:30:19;101068.28;;;24.96;55.44
3544;BME280;1786;52.870;9.578;2022-07-24T05:32:45;101066.09;;;26.14;53.23
3544;BME280;1786;52.870;9.578;2022-07-24T05:35:12;101072.28;;;28.29;48.70
3544;BME280;1786;52.870;9.578;2022-07-24T05:37:38;101077.13;;;30.08;45.96
3544;BME280;1786;52.870;9.578;2022-07-24T05:40:05;101093.06;;;31.40;44.15
3544;BME280;1786;52.870;9.578;2022-07-24T05:42:33;101088.44;;;32.46;41.61
3544;BME280;1786;52.870;9.578;2022-07-24T05:45:00;101092.13;;;33.30;40.97
3544;BME280;1786;52.870;9.578;2022-07-24T05:47:26;101093.81;;;34.02;40.00
3544;BME280;1786;52.870;9.578;2022-07-24T05:49:53;101084.06;;;34.58;39.33
3544;BME280;1786;52.870;9.578;2022-07-24T05:52:20;101089.63;;;34.75;38.49
3544;BME280;1786;52.870;9.578;2022-07-24T05:54:47;101096.13;;;35.03;38.96
3544;BME280;1786;52.870;9.578;2022-07-24T05:57:13;101095.44;;;35.75;38.02
3544;BME280;1786;52.870;9.578;2022-07-24T05:59:40;101098.78;;;37.46;36.13
3544;BME280;1786;52.870;9.578;2022-07-24T06:02:06;101088.34;;;36.89;36.08
3544;BME280;1786;52.870;9.578;2022-07-24T06:04:33;101075.81;;;36.49;36.78
3544;BME280;1786;52.870;9.578;2022-07-24T06:07:02;101075.53;;;36.29;37.05
3544;BME280;1786;52.870;9.578;2022-07-24T06:09:29;101070.13;;;35.56;38.10
3544;BME280;1786;52.870;9.578;2022-07-24T06:11:55;101060.41;;;35.48;37.54
3544;BME280;1786;52.870;9.578;2022-07-24T06:14:22;101053.34;;;34.73;38.46
3544;BME280;1786;52.870;9.578;2022-07-24T06:16:48;101049.91;;;34.66;38.81
3544;BME280;1786;52.870;9.578;2022-07-24T06:19:16;101051.09;;;35.16;39.10
3544;BME280;1786;52.870;9.578;2022-07-24T06:21:42;101047.44;;;36.05;37.94
3544;BME280;1786;52.870;9.578;2022-07-24T06:24:09;101052.31;;;36.96;36.82
3544;BME280;1786;52.870;9.578;2022-07-24T06:26:35;101047.94;;;37.32;36.09
3544;BME280;1786;52.870;9.578;2022-07-24T06:29:22;101053.22;;;38.29;35.06
3544;BME280;1786;52.870;9.578;2022-07-24T06:31:48;101048.53;;;38.35;35.05
3544;BME280;1786;52.870;9.578;2022-07-24T06:34:15;101046.41;;;38.57;35.02
3544;BME280;1786;52.870;9.578;2022-07-24T06:36:42;101044.56;;;38.10;35.01
3544;BME280;1786;52.870;9.578;2022-07-24T06:39:08;101038.78;;;37.59;35.69
3544;BME280;1786;52.870;9.578;2022-07-24T06:41:35;101041.81;;;38.05;35.53
3544;BME280;1786;52.870;9.578;2022-07-24T06:44:02;101037.94;;;38.01;34.71
3544;BME280;1786;52.870;9.578;2022-07-24T06:46:28;101037.44;;;38.14;35.03
3544;BME280;1786;52.870;9.578;2022-07-24T06:48:55;101040.91;;;38.72;34.40
3544;BME280;1786;52.870;9.578;2022-07-24T06:51:22;101040.59;;;38.48;34.45
3544;BME280;1786;52.870;9.578;2022-07-24T06:53:48;101036.09;;;38.32;34.54
3544;BME280;1786;52.870;9.578;2022-07-24T06:56:15;101039.69;;;38.38;34.97
3544;BME280;1786;52.870;9.578;2022-07-24T06:58:42;101044.25;;;39.26;34.15
3544;BME280;1786;52.870;9.578;2022-07-24T07:01:08;101051.81;;;40.11;33.30
3544;BME280;1786;52.870;9.578;2022-07-24T07:03:35;101044.78;;;40.83;32.52
3544;BME280;1786;52.870;9.578;2022-07-24T07:06:02;101049.56;;;41.65;31.62
3544;BME280;1786;52.870;9.578;2022-07-24T07:08:29;101054.56;;;41.68;32.14
3544;BME280;1786;52.870;9.578;2022-07-24T07:10:55;101055.16;;;42.32;31.21
3544;BME280;1786;52.870;9.578;2022-07-24T07:13:22;101057.59;;;42.77;30.45
3544;BME280;1786;52.870;9.578;2022-07-24T07:15:48;101072.63;;;43.41;30.01
3544;BME280;1786;52.870;9.578;2022-07-24T07:18:15;101078.47;;;44.28;29.17
3544;BME280;1786;52.870;9.578;2022-07-24T07:20:42;101066.56;;;44.72;29.51
3544;BME280;1786;52.870;9.578;2022-07-24T07:23:09;101078.13;;;44.29;29.52
3544;BME280;1786;52.870;9.578;2022-07-24T07:25:35;101066.66;;;44.81;30.35
3544;BME280;1786;52.870;9.578;2022-07-24T07:28:02;101068.69;;;44.53;29.27
3544;BME280;1786;52.870;9.578;2022-07-24T07:30:29;101069.59;;;44.26;28.94
3544;BME280;1786;52.870;9.578;2022-07-24T07:32:55;101060.22;;;44.58;29.75
3544;BME280;1786;52.870;9.578;2022-07-24T07:35:22;101057.41;;;43.94;29.63
3544;BME280;1786;52.870;9.578;2022-07-24T07:37:53;101047.06;;;44.22;29.77
3544;BME280;1786;52.870;9.578;2022-07-24T07:40:20;101054.63;;;43.94;29.79
3544;BME280;1786;52.870;9.578;2022-07-24T07:42:47;101050.00;;;44.03;30.13
3544;BME280;1786;52.870;9.578;2022-07-24T07:45:13;101053.78;;;44.21;29.41
3544;BME280;1786;52.870;9.578;2022-07-24T07:47:40;101059.50;;;44.53;28.90
3544;BME280;1786;52.870;9.578;2022-07-24T07:50:08;101049.75;;;44.27;30.00
3544;BME280;1786;52.870;9.578;2022-07-24T07:52:35;101050.47;;;44.69;29.72
3544;BME280;1786;52.870;9.578;2022-07-24T07:55:03;101061.53;;;44.97;29.04
3544;BME280;1786;52.870;9.578;2022-07-24T07:57:30;101049.06;;;45.03;30.03
3544;BME280;1786;52.870;9.578;2022-07-24T08:00:17;101041.22;;;45.05;28.79
3544;BME280;1786;52.870;9.578;2022-07-24T08:02:45;101039.06;;;45.02;29.70
3544;BME280;1786;52.870;9.578;2022-07-24T08:05:11;101050.03;;;45.52;28.13
3544;BME280;1786;52.870;9.578;2022-07-24T08:07:38;101048.13;;;44.85;29.33
3544;BME280;1786;52.870;9.578;2022-07-24T08:10:05;101043.09;;;43.73;29.19
3544;BME280;1786;52.870;9.578;2022-07-24T08:12:37;101043.09;;;42.42;31.01
3544;BME280;1786;52.870;9.578;2022-07-24T08:15:05;101042.56;;;43.11;31.11
3544;BME280;1786;52.870;9.578;2022-07-24T08:17:33;101044.50;;;43.43;30.77
3544;BME280;1786;52.870;9.578;2022-07-24T08:19:59;101041.09;;;43.32;31.17
3544;BME280;1786;52.870;9.578;2022-07-24T08:22:26;101047.63;;;43.69;30.90
3544;BME280;1786;52.870;9.578;2022-07-24T08:24:53;101047.00;;;41.98;31.87
3544;BME280;1786;52.870;9.578;2022-07-24T08:27:19;101038.94;;;41.72;31.84
3544;BME280;1786;52.870;9.578;2022-07-24T08:29:46;101030.06;;;41.17;32.27
3544;BME280;1786;52.870;9.578;2022-07-24T08:32:13;101026.00;;;41.09;32.49
3544;BME280;1786;52.870;9.578;2022-07-24T08:34:39;101016.22;;;40.43;32.81
3544;BME280;1786;52.870;9.578;2022-07-24T08:37:06;101029.38;;;40.12;32.40
3544;BME280;1786;52.870;9.578;2022-07-24T08:39:33;101016.03;;;40.30;33.08
3544;BME280;1786;52.870;9.578;2022-07-24T08:42:00;101023.78;;;39.47;33.83
3544;BME280;1786;52.870;9.578;2022-07-24T08:44:27;101008.03;;;38.81;35.09
3544;BME280;1786;52.870;9.578;2022-07-24T08:46:55;101017.44;;;39.42;33.72
3544;BME280;1786;52.870;9.578;2022-07-24T08:49:26;101013.31;;;39.34;34.67
3544;BME280;1786;52.870;9.578;2022-07-24T08:51:59;101002.50;;;40.23;33.51
3544;BME280;1786;52.870;9.578;2022-07-24T08:54:26;101015.28;;;40.58;33.74
3544;BME280;1786;52.870;9.578;2022-07-24T08:56:52;101010.91;;;40.86;32.75
3544;BME280;1786;52.870;9.578;2022-07-24T08:59:21;101015.13;;;41.42;32.92
3544;BME280;1786;52.870;9.578;2022-07-24T09:01:52;101017.81;;;42.01;32.61
3544;BME280;1786;52.870;9.578;2022-07-24T09:04:38;101008.03;;;42.03;32.28
3544;BME280;1786;52.870;9.578;2022-07-24T09:07:08;101011.69;;;42.61;31.97
3544;BME280;1786;52.870;9.578;2022-07-24T09:09:36;101007.97;;;42.84;31.12
3544;BME280;1786;52.870;9.578;2022-07-24T09:14:35;101010.56;;;41.57;31.31
3544;BME280;1786;52.870;9.578;2022-07-24T09:17:07;100997.25;;;40.66;33.39
3544;BME280;1786;52.870;9.578;2022-07-24T09:25:14;101000.56;;;40.13;34.02
3544;BME280;1786;52.870;9.578;2022-07-24T09:27:55;100996.78;;;40.88;32.50
3544;BME280;1786;52.870;9.578;2022-07-24T09:30:25;101001.97;;;40.60;31.94
3544;BME280;1786;52.870;9.578;2022-07-24T09:32:57;100998.91;;;41.30;33.53
3544;BME280;1786;52.870;9.578;2022-07-24T09:35:34;101003.03;;;42.05;32.90
3544;BME280;1786;52.870;9.578;2022-07-24T09:38:02;101006.47;;;41.49;31.52
3544;BME280;1786;52.870;9.578;2022-07-24T09:40:37;101015.88;;;41.48;32.31
3544;BME280;1786;52.870;9.578;2022-07-24T09:43:24;101012.13;;;41.87;31.27
3544;BME280;1786;52.870;9.578;2022-07-24T09:46:10;101013.00;;;41.34;32.28
3544;BME280;1786;52.870;9.578;2022-07-24T09:48:51;101008.84;;;41.61;32.38
3544;BME280;1786;52.870;9.578;2022-07-24T09:51:20;101002.19;;;41.81;32.56
3544;BME280;1786;52.870;9.578;2022-07-24T09:53:56;101003.88;;;41.82;32.11
3544;BME280;1786;52.870;9.578;2022-07-24T09:56:23;100996.44;;;41.53;32.14
3544;BME280;1786;52.870;9.578;2022-07-24T09:58:55;100992.16;;;41.07;32.12
3544;BME280;1786;52.870;9.578;2022-07-24T10:01:23;100990.47;;;41.12;33.10
3544;BME280;1786;52.870;9.578;2022-07-24T10:03:52;100981.78;;;41.23;33.92
3544;BME280;1786;52.870;9.578;2022-07-24T10:06:21;100984.25;;;41.73;33.04
3544;BME280;1786;52.870;9.578;2022-07-24T10:08:50;100982.16;;;41.65;32.53
3544;BME280;1786;52.870;9.578;2022-07-24T10:11:18;100989.00;;;42.53;31.20
3544;BME280;1786;52.870;9.578;2022-07-24T10:13:46;100986.75;;;41.75;33.12
3544;BME280;1786;52.870;9.578;2022-07-24T10:19:06;100971.94;;;42.03;31.93
3544;BME280;1786;52.870;9.578;2022-07-24T10:21:36;100974.09;;;41.87;32.10
3544;BME280;1786;52.870;9.578;2022-07-24T10:29:12;100972.63;;;41.47;33.14
3544;BME280;1786;52.870;9.578;2022-07-24T10:31:41;100968.88;;;41.08;33.06
3544;BME280;1786;52.870;9.578;2022-07-24T10:34:13;100961.28;;;42.10;32.56
3544;BME280;1786;52.870;9.578;2022-07-24T10:36:50;100956.66;;;42.25;31.47
3544;BME280;1786;52.870;9.578;2022-07-24T10:39:25;100966.47;;;42.17;32.00
3544;BME280;1786;52.870;9.578;2022-07-24T10:42:00;100958.19;;;41.93;32.12
3544;BME280;1786;52.870;9.578;2022-07-24T10:44:27;100953.34;;;42.04;31.67
3544;BME280;1786;52.870;9.578;2022-07-24T10:47:00;100944.47;;;42.21;32.12
3544;BME280;1786;52.870;9.578;2022-07-24T10:52:31;100945.25;;;41.83;33.52
3544;BME280;1786;52.870;9.578;2022-07-24T10:55:18;100953.03;;;41.38;32.27
3544;BME280;1786;52.870;9.578;2022-07-24T10:57:47;100949.31;;;41.96;32.88
3544;BME280;1786;52.870;9.578;2022-07-24T11:00:23;100943.78;;;42.48;32.37
3544;BME280;1786;52.870;9.578;2022-07-24T11:02:58;100959.75;;;42.75;32.00
3544;BME280;1786;52.870;9.578;2022-07-24T11:05:30;100943.72;;;42.53;31.43
3544;BME280;1786;52.870;9.578;2022-07-24T11:10:46;100946.13;;;44.03;30.75
3544;BME280;1786;52.870;9.578;2022-07-24T11:16:17;100935.09;;;43.84;30.34
3544;BME280;1786;52.870;9.578;2022-07-24T11:21:37;100933.78;;;44.18;30.44
3544;BME280;1786;52.870;9.578;2022-07-24T11:26:48;100931.88;;;44.41;29.71
3544;BME280;1786;52.870;9.578;2022-07-24T11:29:20;100935.84;;;43.62;30.47
3544;BME280;1786;52.870;9.578;2022-07-24T11:32:00;100924.06;;;42.82;31.05
3544;BME280;1786;52.870;9.578;2022-07-24T11:34:29;100912.47;;;42.23;31.63
3544;BME280;1786;52.870;9.578;2022-07-24T11:36:57;100912.34;;;42.14;31.82
3544;BME280;1786;52.870;9.578;2022-07-24T11:39:32;100922.50;;;42.24;31.58
3544;BME280;1786;52.870;9.578;2022-07-24T11:42:03;100902.91;;;41.97;31.36
3544;BME280;1786;52.870;9.578;2022-07-24T11:44:44;100897.47;;;41.67;31.51
3544;BME280;1786;52.870;9.578;2022-07-24T11:47:22;100895.19;;;41.26;31.62
3544;BME280;1786;52.870;9.578;2022-07-24T11:49:52;100892.22;;;41.42;32.20
3544;BME280;1786;52.870;9.578;2022-07-24T11:52:39;100899.66;;;41.46;32.73
3544;BME280;1786;52.870;9.578;2022-07-24T11:55:09;100883.09;;;41.41;33.19
3544;BME280;1786;52.870;9.578;2022-07-24T11:57:44;100883.47;;;42.48;32.17
3544;BME280;1786;52.870;9.578;2022-07-24T12:00:31;100888.31;;;43.17;30.75
3544;BME280;1786;52.870;9.578;2022-07-24T12:02:59;100884.72;;;43.16;31.10
3544;BME280;1786;52.870;9.578;2022-07-24T12:05:34;100872.25;;;42.40;31.58
3544;BME280;1786;52.870;9.578;2022-07-24T12:08:03;100873.75;;;42.13;31.87
3544;BME280;1786;52.870;9.578;2022-07-24T12:10:30;100868.97;;;42.51;31.11
3544;BME280;1786;52.870;9.578;2022-07-24T12:12:57;100867.31;;;42.18;31.53
3544;BME280;1786;52.870;9.578;2022-07-24T12:15:25;100867.25;;;42.55;31.97
3544;BME280;1786;52.870;9.578;2022-07-24T12:18:00;100867.00;;;42.38;31.93
3544;BME280;1786;52.870;9.578;2022-07-24T12:20:38;100860.53;;;42.24;32.22
3544;BME280;1786;52.870;9.578;2022-07-24T12:23:08;100857.03;;;42.37;32.11
3544;BME280;1786;52.870;9.578;2022-07-24T12:25:35;100865.16;;;42.47;31.99
3544;BME280;1786;52.870;9.578;2022-07-24T12:28:07;100856.13;;;42.55;32.12
3544;BME280;1786;52.870;9.578;2022-07-24T12:30:36;100846.50;;;43.22;30.56
3544;BME280;1786;52.870;9.578;2022-07-24T12:33:06;100843.13;;;43.25;30.79
3544;BME280;1786;52.870;9.578;2022-07-24T12:35:59;100840.81;;;43.91;29.51
3544;BME280;1786;52.870;9.578;2022-07-24T12:38:35;100836.63;;;43.30;30.85
3544;BME280;1786;52.870;9.578;2022-07-24T12:43:55;100826.75;;;43.24;30.99
3544;BME280;1786;52.870;9.578;2022-07-24T12:46:30;100832.31;;;43.96;30.09
3544;BME280;1786;52.870;9.578;2022-07-24T12:51:56;100820.75;;;43.30;31.18
3544;BME280;1786;52.870;9.578;2022-07-24T12:54:34;100816.78;;;43.59;31.38
3544;BME280;1786;52.870;9.578;2022-07-24T12:57:07;100830.34;;;43.24;30.24
3544;BME280;1786;52.870;9.578;2022-07-24T12:59:44;100822.16;;;43.41;29.94
3544;BME280;1786;52.870;9.578;2022-07-24T13:02:16;100813.53;;;43.29;30.47
3544;BME280;1786;52.870;9.578;2022-07-24T13:04:48;100812.31;;;43.94;30.05
3544;BME280;1786;52.870;9.578;2022-07-24T13:07:17;100813.59;;;43.52;30.53
3544;BME280;1786;52.870;9.578;2022-07-24T13:09:44;100819.72;;;43.26;31.00
3544;BME280;1786;52.870;9.578;2022-07-24T13:12:11;100815.31;;;42.97;31.68
3544;BME280;1786;52.870;9.578;2022-07-24T13:14:39;100810.06;;;42.03;31.72
3544;BME280;1786;52.870;9.578;2022-07-24T13:17:08;100807.16;;;41.94;32.00
3544;BME280;1786;52.870;9.578;2022-07-24T13:19:38;100799.91;;;42.45;31.76
3544;BME280;1786;52.870;9.578;2022-07-24T13:22:04;100802.56;;;43.47;31.37
3544;BME280;1786;52.870;9.578;2022-07-24T13:24:31;100801.19;;;43.21;30.99
3544;BME280;1786;52.870;9.578;2022-07-24T13:27:00;100809.97;;;43.51;30.81
3544;BME280;1786;52.870;9.578;2022-07-24T13:29:27;100806.69;;;43.63;31.13
3544;BME280;1786;52.870;9.578;2022-07-24T13:31:54;100796.38;;;43.63;31.27
3544;BME280;1786;52.870;9.578;2022-07-24T13:34:21;100804.78;;;44.17;29.80
3544;BME280;1786;52.870;9.578;2022-07-24T13:36:49;100801.69;;;43.37;29.65
3544;BME280;1786;52.870;9.578;2022-07-24T13:39:16;100803.16;;;42.79;31.43
3544;BME280;1786;52.870;9.578;2022-07-24T13:41:43;100793.75;;;43.31;31.21
3544;BME280;1786;52.870;9.578;2022-07-24T13:44:09;100792.06;;;43.43;31.45
3544;BME280;1786;52.870;9.578;2022-07-24T13:46:36;100784.94;;;43.51;30.36
3544;BME280;1786;52.870;9.578;2022-07-24T13:49:04;100779.03;;;43.30;30.25
3544;BME280;1786;52.870;9.578;2022-07-24T13:51:34;100768.72;;;43.67;30.46
3544;BME280;1786;52.870;9.578;2022-07-24T13:54:02;100775.16;;;44.21;29.79